Observations for VALLEY RAF, United Kingdom (EGOV)

EGOV 180450Z AUTO 26009KT 9999 FEW032/// BKN080/// 13/09 Q1016  
EGOV 180350Z AUTO 27012KT 9999 OVC030/// 13/09 Q1015
EGOV 180250Z AUTO 27011KT 9999 OVC029/// 13/09 Q1015
EGOV 180150Z AUTO 26009KT 9999 OVC026/// 13/09 Q1014
EGOV 180050Z AUTO 25007KT 9999 BKN030/// 14/11 Q1014
EGOV 172350Z AUTO 25008KT 9999 BKN027/// SCT036/// BKN045/// 14/11 Q1014
EGOV 172250Z AUTO 23008KT 9999 BKN030/// SCT047/// 13/12 Q1013  
EGOV 172150Z AUTO 20009KT 8000 BR BKN042/// 13/12 Q1013 
EGOV 172050Z AUTO 21009KT 9999 BKN043/// 14/12 Q1012
EGOV 171950Z AUTO 22011KT 9000 HZ FEW043/// 14/13 Q1012 
EGOV 171850Z AUTO 21012KT 9999 SCT029/// 14/13 Q1011
EGOV 171750Z AUTO 19017KT 9000 FEW003/// BKN050/// 14/13 Q1011  
EGOV 171650Z AUTO 19015KT 9999 OVC001/// 15/13 Q1011
EGOV 171550Z AUTO 19020KT 9999 OVC002/// 16/13 Q1011
EGOV 171450Z AUTO 19018KT 7000 HZ OVC002/// 15/13 Q1011 
EGOV 171350Z AUTO 18021KT 7000 HZ OVC003/// 15/14 Q1011 
EGOV 171250Z AUTO 17020KT 3900 BR BKN004/// 14/13 Q1011 
EGOV 171150Z AUTO 17020KT 9999 BKN006/// 14/12 Q1011
EGOV 171050Z AUTO 17021KT 6000 BR BKN003/// BKN010/// 13/13 Q1011   
EGOV 170950Z AUTO 18017KT 9999 BKN004/// 13/12 Q1012
EGOV 170850Z AUTO 19018KT 9999 BKN021/// SCT025/// 13/10 Q1012  
EGOV 170750Z AUTO 19016KT 9999 FEW035/// BKN070/// 13/11 Q1012  
EGOV 170650Z AUTO 21014KT 9999 FEW060/// BKN130/// 13/10 Q1013  
EGOV 170550Z AUTO 23013KT 9999 FEW030/// BKN060/// 12/10 Q1012 RERA 
EGOV 170450Z AUTO 23014KT 9999 OVC060/// 12/10 Q1012 RERA